Time;durP1;ratioP1;P1;durP2;ratioP2;P2;SDS_P1;SDS_P2;PMS_P1;PMS_P2;Temp;Humidity;BMP_temperature;BMP_pressure;BME280_temperature;BME280_humidity;BME280_pressure;Samples;Min_cycle;Max_cycle;Signal;HPM_P1;HPM_P2
2022/03/01 00:00:56;;;;;;;17.90;7.73;;;0.20;99.90;;;;;;4187854;28;20273;-63
2022/03/01 00:02:57;;;;;;;17.13;7.97;;;0.20;99.90;;;;;;4174841;28;20297;-66
2022/03/01 00:04:58;;;;;;;14.83;8.43;;;0.20;99.90;;;;;;4188476;28;20323;-44
2022/03/01 00:06:59;;;;;;;18.40;7.70;;;0.20;99.90;;;;;;4173965;28;20305;-52
2022/03/01 00:09:00;;;;;;;13.80;7.67;;;0.20;99.90;;;;;;4175533;28;20266;-42
2022/03/01 00:11:01;;;;;;;14.47;7.97;;;0.20;99.90;;;;;;4176075;28;20699;-59
2022/03/01 00:13:04;;;;;;;14.73;8.10;;;0.20;99.90;;;;;;4174683;28;20328;-55
2022/03/01 00:15:06;;;;;;;18.73;7.60;;;0.20;99.90;;;;;;4191778;28;20334;-78
2022/03/01 00:17:07;;;;;;;17.37;8.43;;;0.20;99.90;;;;;;4191115;28;20277;-63
2022/03/01 00:19:09;;;;;;;14.63;8.60;;;0.20;99.90;;;;;;4191917;28;20285;-50
2022/03/01 00:21:12;;;;;;;14.83;7.87;;;0.20;99.90;;;;;;4189008;28;20273;-44
2022/03/01 00:23:13;;;;;;;14.73;7.77;;;0.20;99.90;;;;;;4185039;28;20289;-67
2022/03/01 00:25:14;;;;;;;17.53;8.00;;;0.20;99.90;;;;;;4172308;28;20681;-56
2022/03/01 00:27:15;;;;;;;12.23;6.47;;;0.30;99.90;;;;;;4176599;28;20294;-65
2022/03/01 00:29:17;;;;;;;13.67;7.23;;;0.20;99.90;;;;;;4175346;28;20278;-57
2022/03/01 00:31:18;;;;;;;9.90;5.87;;;0.30;99.90;;;;;;4187872;28;20289;-43
2022/03/01 00:33:19;;;;;;;15.37;6.60;;;0.30;99.90;;;;;;4173747;28;20266;-45
2022/03/01 00:35:20;;;;;;;11.87;6.83;;;0.30;99.90;;;;;;4187615;28;20332;-74
2022/03/01 00:37:21;;;;;;;14.23;6.33;;;0.20;99.90;;;;;;4173253;28;20320;-50
2022/03/01 00:39:22;;;;;;;13.57;6.30;;;0.20;99.90;;;;;;4189548;28;20273;-44
2022/03/01 00:41:24;;;;;;;12.63;6.33;;;0.10;99.90;;;;;;4191012;28;20797;-63
2022/03/01 00:43:25;;;;;;;11.00;6.27;;;0.10;99.90;;;;;;4190141;28;20285;-43
2022/03/01 00:45:26;;;;;;;17.63;6.63;;;0.20;99.90;;;;;;4174160;28;20274;-64
2022/03/01 00:47:27;;;;;;;15.13;7.17;;;0.20;99.90;;;;;;4185146;28;20277;-64
2022/03/01 00:49:28;;;;;;;14.67;6.40;;;0.20;99.90;;;;;;4181907;28;20843;-52
2022/03/01 00:51:30;;;;;;;14.33;7.27;;;0.20;99.90;;;;;;4174610;28;20286;-71
2022/03/01 00:53:31;;;;;;;18.30;7.80;;;0.20;99.90;;;;;;4173608;28;20348;-49
2022/03/01 00:55:33;;;;;;;23.30;10.57;;;0.30;99.90;;;;;;4174165;28;20270;-62
2022/03/01 00:57:34;;;;;;;24.07;10.37;;;0.30;99.90;;;;;;4175918;28;20771;-44
2022/03/01 00:59:36;;;;;;;19.13;9.60;;;0.30;99.90;;;;;;4183597;28;20330;-69
2022/03/01 01:01:37;;;;;;;20.57;8.87;;;0.20;99.90;;;;;;4182362;28;20266;-83
2022/03/01 01:03:38;;;;;;;18.43;9.57;;;0.20;99.90;;;;;;4181476;28;20293;-52
2022/03/01 01:05:39;;;;;;;18.10;9.10;;;0.20;99.90;;;;;;4191054;28;20328;-69
2022/03/01 01:07:41;;;;;;;17.40;8.67;;;0.20;99.90;;;;;;4190611;28;20652;-41
2022/03/01 01:09:42;;;;;;;14.53;7.53;;;0.20;99.90;;;;;;4191364;28;20295;-68
2022/03/01 01:11:44;;;;;;;13.33;7.77;;;0.20;99.90;;;;;;4190832;28;20277;-55
2022/03/01 01:13:46;;;;;;;17.30;8.60;;;0.30;99.90;;;;;;4189866;28;20274;-55
2022/03/01 01:15:47;;;;;;;20.03;9.30;;;0.20;99.90;;;;;;4190968;28;20253;-66
2022/03/01 01:17:48;;;;;;;16.67;8.00;;;0.20;99.90;;;;;;4190720;28;20265;-44
2022/03/01 01:19:50;;;;;;;20.03;8.67;;;0.20;99.90;;;;;;4192123;28;20737;-55
2022/03/01 01:24:11;;;;;;;17.20;9.70;;;0.10;99.90;;;;;;4192012;28;20342;-63
2022/03/01 01:26:12;;;;;;;15.93;8.43;;;0.10;99.90;;;;;;4190665;28;21244;-60
2022/03/01 01:28:14;;;;;;;18.73;8.97;;;0.10;99.90;;;;;;4191754;28;20273;-49
2022/03/01 01:30:17;;;;;;;18.83;9.60;;;0.10;99.90;;;;;;4189979;28;20281;-54
2022/03/01 01:32:18;;;;;;;23.07;9.80;;;0.10;99.90;;;;;;4178906;28;20286;-48
2022/03/01 01:34:20;;;;;;;21.07;10.17;;;0.10;99.90;;;;;;4176517;28;20273;-56
2022/03/01 01:36:23;;;;;;;22.43;9.63;;;0.10;99.90;;;;;;4191443;28;20262;-55
2022/03/01 01:38:24;;;;;;;19.63;9.17;;;0.10;99.90;;;;;;4176396;28;20277;-62
2022/03/01 01:40:28;;;;;;;19.00;9.30;;;0.10;99.90;;;;;;4179451;28;20273;-67
2022/03/01 01:42:29;;;;;;;20.50;9.43;;;0.10;99.90;;;;;;4173860;28;20266;-73
2022/03/01 01:44:31;;;;;;;19.93;9.17;;;0.10;99.90;;;;;;4174687;28;20324;-58
2022/03/01 01:46:33;;;;;;;19.47;9.43;;;0.10;99.90;;;;;;4174398;28;20262;-56
2022/03/01 01:48:34;;;;;;;22.67;9.20;;;0.00;99.90;;;;;;4175415;28;20313;-42
2022/03/01 01:50:35;;;;;;;17.13;8.20;;;0.00;99.90;;;;;;4178424;28;20272;-55
2022/03/01 01:52:36;;;;;;;20.33;8.83;;;0.00;99.90;;;;;;4176543;28;20677;-60
2022/03/01 01:54:38;;;;;;;17.87;9.13;;;0.00;99.90;;;;;;4191312;28;21885;-67
2022/03/01 01:56:39;;;;;;;16.90;8.07;;;0.00;99.90;;;;;;4189391;28;20339;-51
2022/03/01 01:58:40;;;;;;;22.50;10.43;;;0.00;99.90;;;;;;4191213;28;20339;-49
2022/03/01 02:00:42;;;;;;;19.70;9.20;;;0.00;99.90;;;;;;4190192;28;20299;-58
2022/03/01 02:02:43;;;;;;;20.57;8.83;;;0.00;99.90;;;;;;4191334;28;20708;-54
2022/03/01 02:04:45;;;;;;;15.30;7.77;;;-0.10;99.90;;;;;;4185906;28;20297;-66
2022/03/01 02:06:54;;;;;;;23.73;9.23;;;-0.10;99.90;;;;;;4177805;28;20262;-50
2022/03/01 02:08:55;;;;;;;16.43;8.67;;;-0.10;99.90;;;;;;4177603;28;20266;-89
2022/03/01 02:10:58;;;;;;;20.47;8.73;;;-0.10;99.90;;;;;;4176872;28;20294;-55
2022/03/01 02:13:00;;;;;;;20.00;8.93;;;-0.10;99.90;;;;;;4193783;28;20312;-49
2022/03/01 02:15:02;;;;;;;17.20;8.50;;;-0.20;99.90;;;;;;4194646;28;20253;-53
2022/03/01 02:17:05;;;;;;;17.53;8.10;;;-0.20;99.90;;;;;;4182807;28;20332;-58
2022/03/01 02:19:12;;;;;;;16.10;8.53;;;-0.20;99.90;;;;;;4176259;28;20274;-47
2022/03/01 02:21:13;;;;;;;16.67;8.07;;;-0.20;99.90;;;;;;4193555;28;20314;-57
2022/03/01 02:23:14;;;;;;;14.70;8.57;;;-0.30;99.90;;;;;;4190544;28;20291;-57
2022/03/01 02:25:16;;;;;;;15.70;7.87;;;-0.30;99.90;;;;;;4175518;28;20258;-60
2022/03/01 02:27:17;;;;;;;15.00;6.87;;;-0.30;99.90;;;;;;4191770;28;20273;-66
2022/03/01 02:29:18;;;;;;;13.90;7.33;;;-0.30;99.90;;;;;;4194461;28;20265;-56
2022/03/01 02:31:19;;;;;;;12.77;6.73;;;-0.40;99.90;;;;;;4174874;28;20278;-55
2022/03/01 02:33:20;;;;;;;13.90;6.70;;;-0.40;99.90;;;;;;4184471;28;20286;-81
2022/03/01 02:35:22;;;;;;;14.97;6.97;;;-0.40;99.90;;;;;;4176081;28;20270;-60
2022/03/01 02:37:24;;;;;;;13.73;6.43;;;-0.40;99.90;;;;;;4176729;28;20882;-63
2022/03/01 02:39:25;;;;;;;13.37;6.70;;;-0.40;99.90;;;;;;4175441;28;20684;-66
2022/03/01 02:41:26;;;;;;;16.87;8.00;;;-0.40;99.90;;;;;;4176698;28;20274;-45
2022/03/01 02:43:27;;;;;;;12.87;6.90;;;-0.40;99.90;;;;;;4174622;28;20328;-72
2022/03/01 02:45:28;;;;;;;13.60;7.23;;;-0.30;99.90;;;;;;4178504;28;20270;-69
2022/03/01 02:47:29;;;;;;;15.63;6.43;;;-0.30;99.90;;;;;;4191736;28;20729;-48
2022/03/01 02:49:31;;;;;;;14.17;6.50;;;-0.30;99.90;;;;;;4186734;28;20285;-58
2022/03/01 02:51:33;;;;;;;12.90;6.60;;;-0.30;99.90;;;;;;4191288;28;20262;-51
2022/03/01 02:53:36;;;;;;;11.80;6.07;;;-0.40;99.90;;;;;;4193324;28;20265;-84
2022/03/01 02:55:37;;;;;;;12.53;6.60;;;-0.40;99.90;;;;;;4193508;28;20315;-50
2022/03/01 02:57:39;;;;;;;12.33;6.80;;;-0.30;99.90;;;;;;4192560;28;20387;-47
2022/03/01 02:59:40;;;;;;;15.27;6.43;;;-0.30;99.90;;;;;;4194141;28;20267;-68
2022/03/01 03:01:42;;;;;;;27.83;7.13;;;-0.30;99.90;;;;;;4191682;28;20330;-62
2022/03/01 03:03:43;;;;;;;17.03;7.03;;;-0.40;99.90;;;;;;4193320;28;20296;-62
2022/03/01 03:05:44;;;;;;;23.23;7.17;;;-0.40;99.90;;;;;;4192127;28;20339;-67
2022/03/01 03:07:45;;;;;;;12.53;6.20;;;-0.40;99.90;;;;;;4193256;28;20293;-56
2022/03/01 03:09:47;;;;;;;9.93;5.83;;;-0.40;99.90;;;;;;4190711;28;20691;-44
2022/03/01 03:11:48;;;;;;;10.77;5.60;;;-0.40;99.90;;;;;;4195627;28;20269;-56
2022/03/01 03:13:49;;;;;;;13.63;6.53;;;-0.40;99.90;;;;;;4191039;28;20273;-64
2022/03/01 03:15:50;;;;;;;11.80;6.30;;;-0.40;99.90;;;;;;4177473;28;20596;-55
2022/03/01 03:17:53;;;;;;;9.87;6.33;;;-0.40;99.90;;;;;;4175881;28;20323;-48
2022/03/01 03:19:54;;;;;;;13.97;6.57;;;-0.50;99.90;;;;;;4174700;28;21312;-55
2022/03/01 03:21:55;;;;;;;13.13;6.20;;;-0.50;99.90;;;;;;4206135;22;20383;-63
2022/03/01 03:23:56;;;;;;;10.00;5.40;;;-0.50;99.90;;;;;;4159099;28;20302;-64
2022/03/01 03:25:57;;;;;;;13.03;5.93;;;-0.50;99.90;;;;;;4160409;28;20266;-82
2022/03/01 03:27:59;;;;;;;10.53;6.20;;;-0.50;99.90;;;;;;4172250;28;20360;-56
2022/03/01 03:30:03;;;;;;;11.90;6.17;;;-0.50;99.90;;;;;;4163999;28;20336;-50
2022/03/01 03:32:04;;;;;;;14.37;6.47;;;-0.50;99.90;;;;;;4169631;28;20694;-51
2022/03/01 03:34:10;;;;;;;10.37;5.50;;;-0.50;99.90;;;;;;4160683;28;20274;-68
2022/03/01 03:36:11;;;;;;;15.83;5.73;;;-0.50;99.90;;;;;;4168090;28;20316;-58
2022/03/01 03:38:12;;;;;;;12.13;5.30;;;-0.60;99.90;;;;;;4176741;28;20599;-55
2022/03/01 03:40:14;;;;;;;12.13;5.50;;;-0.60;99.90;;;;;;4176526;28;20317;-60
2022/03/01 03:42:15;;;;;;;11.13;5.83;;;-0.60;99.90;;;;;;4175758;28;20324;-69
2022/03/01 03:44:16;;;;;;;9.97;5.50;;;-0.60;99.90;;;;;;4168148;28;20356;-76
2022/03/01 03:46:18;;;;;;;12.60;5.87;;;-0.70;99.90;;;;;;4159179;28;20351;-66
2022/03/01 03:48:19;;;;;;;11.07;5.33;;;-0.70;99.90;;;;;;4161703;28;20271;-68
2022/03/01 03:50:20;;;;;;;11.17;5.73;;;-0.60;99.90;;;;;;4174600;28;20270;-55
2022/03/01 03:52:21;;;;;;;16.00;6.30;;;-0.60;99.90;;;;;;4177249;28;20315;-71
2022/03/01 03:54:22;;;;;;;13.00;6.50;;;-0.70;99.90;;;;;;4175020;28;20278;-77
2022/03/01 03:56:24;;;;;;;14.53;6.40;;;-0.60;99.90;;;;;;4176731;28;20336;-47
2022/03/01 03:58:25;;;;;;;12.27;5.77;;;-0.70;99.90;;;;;;4174948;28;20254;-63
2022/03/01 04:00:26;;;;;;;9.47;5.10;;;-0.70;99.90;;;;;;4158988;28;20271;-63
2022/03/01 04:02:27;;;;;;;10.47;5.90;;;-0.70;99.90;;;;;;4175351;28;20274;-73
2022/03/01 04:04:28;;;;;;;13.17;6.00;;;-0.80;99.90;;;;;;4175252;28;20297;-52
2022/03/01 04:06:29;;;;;;;17.80;5.83;;;-0.80;99.90;;;;;;4173913;28;20761;-50
2022/03/01 04:08:30;;;;;;;11.93;6.00;;;-0.80;99.90;;;;;;4164990;28;20274;-57
2022/03/01 04:10:32;;;;;;;11.17;6.00;;;-0.80;99.90;;;;;;4161956;28;20795;-54
2022/03/01 04:12:33;;;;;;;10.20;5.37;;;-0.80;99.90;;;;;;4175098;28;20734;-59
2022/03/01 04:14:34;;;;;;;10.40;5.43;;;-0.80;99.90;;;;;;4164446;28;20279;-51
2022/03/01 04:16:36;;;;;;;12.87;6.50;;;-0.80;99.90;;;;;;4158776;28;20321;-68
2022/03/01 04:18:37;;;;;;;10.63;5.57;;;-0.80;99.90;;;;;;4160070;28;21737;-62
2022/03/01 04:20:38;;;;;;;14.73;6.63;;;-0.80;99.90;;;;;;4170325;28;20363;-68
2022/03/01 04:25:17;;;;;;;14.93;6.73;;;-0.90;99.90;;;;;;4181034;22;20851;-58
2022/03/01 04:27:19;;;;;;;13.50;6.77;;;-0.90;99.90;;;;;;4173630;28;20282;-69
2022/03/01 04:29:20;;;;;;;13.90;6.90;;;-1.00;99.90;;;;;;4175810;28;20262;-63
2022/03/01 04:31:22;;;;;;;14.07;6.63;;;-1.00;99.90;;;;;;4174294;28;20286;-53
2022/03/01 04:33:23;;;;;;;16.47;6.77;;;-1.00;99.90;;;;;;4175801;28;20281;-66
2022/03/01 04:35:24;;;;;;;12.93;6.30;;;-1.00;99.90;;;;;;4164214;28;20333;-54
2022/03/01 04:37:25;;;;;;;16.60;6.40;;;-1.00;99.90;;;;;;4167919;28;20282;-70
2022/03/01 04:39:29;;;;;;;12.00;5.37;;;-1.00;99.90;;;;;;4164653;28;20340;-70
2022/03/01 04:41:32;;;;;;;12.30;6.43;;;-1.10;99.90;;;;;;4159115;28;20278;-43
2022/03/01 04:43:33;;;;;;;10.57;6.00;;;-1.00;99.90;;;;;;4160930;28;20757;-74
2022/03/01 04:45:34;;;;;;;13.17;6.10;;;-1.10;99.90;;;;;;4175583;28;20731;-92
2022/03/01 04:47:36;;;;;;;13.27;5.50;;;-1.10;99.90;;;;;;4176021;28;20307;-84
2022/03/01 04:49:38;;;;;;;11.33;6.07;;;-1.10;99.90;;;;;;4174734;28;20316;-76
2022/03/01 04:51:39;;;;;;;15.23;6.47;;;-1.20;99.90;;;;;;4175198;28;20258;-54
2022/03/01 04:53:40;;;;;;;12.90;6.10;;;-1.20;99.90;;;;;;4170326;28;20275;-66
2022/03/01 04:55:42;;;;;;;14.63;6.90;;;-1.10;99.90;;;;;;4162645;28;20261;-62
2022/03/01 04:57:44;;;;;;;15.40;6.20;;;-1.10;99.90;;;;;;4173995;28;21183;-60
2022/03/01 04:59:45;;;;;;;13.07;5.90;;;-1.20;99.90;;;;;;4175192;28;20707;-53
2022/03/01 05:01:46;;;;;;;14.50;5.93;;;-1.20;99.90;;;;;;4171995;28;20290;-80
2022/03/01 05:03:48;;;;;;;11.50;5.97;;;-1.10;99.90;;;;;;4175663;28;20681;-86
2022/03/01 05:05:49;;;;;;;11.93;6.23;;;-1.10;99.90;;;;;;4174932;28;20347;-70
2022/03/01 05:07:50;;;;;;;16.33;7.10;;;-1.10;99.90;;;;;;4175201;28;20323;-58
2022/03/01 05:09:51;;;;;;;18.30;6.23;;;-1.10;99.90;;;;;;4174029;28;20369;-54
2022/03/01 05:11:52;;;;;;;15.73;6.87;;;-1.10;99.90;;;;;;4176596;28;20305;-43
2022/03/01 05:13:54;;;;;;;14.53;5.90;;;-1.20;99.90;;;;;;4174372;28;20788;-90
2022/03/01 05:15:55;;;;;;;16.83;6.33;;;-1.10;99.90;;;;;;4169821;28;20270;-66
2022/03/01 05:17:58;;;;;;;17.27;6.60;;;-1.10;99.90;;;;;;4172862;28;20300;-95
2022/03/01 05:20:01;;;;;;;10.57;5.67;;;-1.10;99.90;;;;;;4179895;28;20274;-93
2022/03/01 05:22:02;;;;;;;15.50;6.57;;;-1.10;99.90;;;;;;4162249;28;20290;-91
2022/03/01 05:24:04;;;;;;;20.57;6.60;;;-1.10;99.90;;;;;;4161394;28;20364;-85
2022/03/01 05:26:05;;;;;;;12.93;6.13;;;-1.10;99.90;;;;;;4177979;28;20340;-70
2022/03/01 05:28:07;;;;;;;16.13;5.90;;;-1.00;99.90;;;;;;4172302;28;21193;-49
2022/03/01 05:30:11;;;;;;;11.93;5.73;;;-1.00;99.90;;;;;;4155492;28;20274;-81
2022/03/01 05:32:12;;;;;;;10.97;6.30;;;-1.00;99.90;;;;;;4168877;28;20328;-71
2022/03/01 05:34:13;;;;;;;14.00;6.17;;;-1.00;99.90;;;;;;4162563;28;20316;-66
2022/03/01 05:36:15;;;;;;;17.10;7.17;;;-1.00;99.90;;;;;;4162809;28;20337;-73
2022/03/01 05:38:16;;;;;;;14.27;6.57;;;-1.10;99.90;;;;;;4159832;28;20336;-84
2022/03/01 05:40:20;;;;;;;13.13;6.87;;;-1.10;99.90;;;;;;4163866;28;20289;-75
2022/03/01 05:42:23;;;;;;;16.03;7.57;;;-1.10;99.90;;;;;;4178926;28;20255;-68
2022/03/01 05:44:24;;;;;;;15.10;7.60;;;-1.00;99.90;;;;;;4171969;28;20361;-71
2022/03/01 05:46:26;;;;;;;17.87;7.80;;;-1.00;99.90;;;;;;4173947;28;20273;-51
2022/03/01 05:48:28;;;;;;;13.40;7.13;;;-1.00;99.90;;;;;;4176287;28;21484;-73
2022/03/01 05:50:29;;;;;;;14.30;7.33;;;-1.00;99.90;;;;;;4178180;28;20281;-55
2022/03/01 05:52:31;;;;;;;15.63;8.33;;;-1.00;99.90;;;;;;4168389;28;20716;-64
2022/03/01 05:54:32;;;;;;;15.07;6.70;;;-0.90;99.90;;;;;;4162512;28;20270;-64
2022/03/01 05:56:33;;;;;;;21.23;6.07;;;-0.90;99.90;;;;;;4174973;28;20286;-50
2022/03/01 05:58:34;;;;;;;18.80;7.10;;;-0.90;99.90;;;;;;4176395;28;20277;-56
2022/03/01 06:00:36;;;;;;;17.97;8.27;;;-0.90;99.90;;;;;;4177670;28;20262;-63
2022/03/01 06:02:37;;;;;;;19.00;8.13;;;-0.90;99.90;;;;;;4175969;28;20250;-54
2022/03/01 06:04:38;;;;;;;18.80;9.07;;;-0.80;99.90;;;;;;4177167;28;20379;-54
2022/03/01 06:06:39;;;;;;;16.70;6.83;;;-0.80;99.90;;;;;;4175979;28;20320;-56
2022/03/01 06:08:41;;;;;;;20.57;7.97;;;-0.80;99.90;;;;;;4177453;28;20282;-46
2022/03/01 06:10:42;;;;;;;14.57;6.90;;;-0.70;99.90;;;;;;4176070;28;20270;-59
2022/03/01 06:12:43;;;;;;;15.70;7.57;;;-0.70;99.90;;;;;;4177472;28;20274;-46
2022/03/01 06:14:46;;;;;;;22.73;8.40;;;-0.70;99.90;;;;;;4176063;28;20270;-50
2022/03/01 06:16:47;;;;;;;15.77;7.50;;;-0.60;99.90;;;;;;4177154;28;20282;-45
2022/03/01 06:18:48;;;;;;;17.67;6.70;;;-0.60;99.90;;;;;;4176533;28;20327;-46
2022/03/01 06:20:49;;;;;;;15.17;6.63;;;-0.50;99.90;;;;;;4177205;28;20323;-63
2022/03/01 06:22:50;;;;;;;18.60;7.97;;;-0.40;99.90;;;;;;4251203;22;20342;-70
2022/03/01 06:24:54;;;;;;;22.60;9.00;;;-0.30;99.90;;;;;;4193316;28;20297;-57
2022/03/01 06:26:55;;;;;;;21.93;8.90;;;-0.20;99.90;;;;;;4192426;28;20331;-48
2022/03/01 06:28:57;;;;;;;18.10;6.73;;;-0.10;99.90;;;;;;4193140;28;20326;-74
2022/03/01 06:30:58;;;;;;;17.03;7.30;;;0.00;99.90;;;;;;4192225;28;21096;-69
2022/03/01 06:32:59;;;;;;;17.50;7.63;;;-0.10;99.90;;;;;;4193654;28;20281;-74
2022/03/01 06:35:02;;;;;;;14.77;6.67;;;0.00;99.90;;;;;;4191672;28;20342;-52
2022/03/01 06:37:03;;;;;;;17.10;7.47;;;-0.10;99.90;;;;;;4193249;28;20327;-68
2022/03/01 06:39:04;;;;;;;21.13;9.00;;;0.00;99.90;;;;;;4192628;28;20319;-56
2022/03/01 06:41:05;;;;;;;16.13;7.33;;;0.00;99.90;;;;;;4175550;28;20980;-71
2022/03/01 06:43:06;;;;;;;18.63;6.57;;;0.00;99.90;;;;;;4191684;28;20265;-59
2022/03/01 06:45:08;;;;;;;16.20;6.30;;;0.10;99.90;;;;;;4490615;22;20313;-61
2022/03/01 06:47:09;;;;;;;16.70;6.27;;;0.10;99.90;;;;;;4191767;28;20803;-69
2022/03/01 06:49:11;;;;;;;15.73;7.57;;;0.00;99.90;;;;;;4193456;28;20261;-66
2022/03/01 06:51:12;;;;;;;29.47;11.37;;;0.10;99.90;;;;;;4173319;28;20308;-59
2022/03/01 06:53:14;;;;;;;18.53;8.43;;;0.10;99.90;;;;;;4193210;28;20590;-49
2022/03/01 06:55:15;;;;;;;23.10;7.57;;;0.10;99.90;;;;;;4461922;22;20852;-54
2022/03/01 06:57:17;;;;;;;19.07;8.37;;;0.20;99.90;;;;;;4156918;28;20263;-55
2022/03/01 06:59:18;;;;;;;25.07;11.17;;;0.20;99.90;;;;;;4177403;28;20262;-67
2022/03/01 07:01:19;;;;;;;35.17;13.90;;;0.20;99.90;;;;;;4175381;28;20304;-62
2022/03/01 07:03:20;;;;;;;35.57;15.63;;;0.20;99.90;;;;;;4176385;28;20312;-66
2022/03/01 07:05:21;;;;;;;23.37;11.47;;;0.20;99.90;;;;;;4175981;28;20359;-70
2022/03/01 07:07:23;;;;;;;30.33;14.30;;;0.20;99.90;;;;;;4176083;28;20320;-79
2022/03/01 07:09:24;;;;;;;46.07;20.97;;;0.20;99.90;;;;;;4176796;28;20312;-71
2022/03/01 07:11:25;;;;;;;52.03;22.97;;;0.20;99.90;;;;;;4175931;28;20553;-69
2022/03/01 07:13:26;;;;;;;27.37;13.47;;;0.20;99.90;;;;;;4158362;28;20325;-56
2022/03/01 07:15:27;;;;;;;35.47;15.50;;;0.20;99.90;;;;;;4175300;28;20274;-45
2022/03/01 07:17:28;;;;;;;38.40;17.80;;;0.30;99.90;;;;;;4177173;28;20281;-57
2022/03/01 07:19:30;;;;;;;52.17;24.30;;;0.30;99.90;;;;;;4175626;28;20278;-60
2022/03/01 07:21:31;;;;;;;31.00;14.80;;;0.40;99.90;;;;;;4175988;28;20717;-79
2022/03/01 07:23:32;;;;;;;29.30;14.30;;;0.50;99.90;;;;;;4175538;28;20278;-62
2022/03/01 07:25:33;;;;;;;30.70;13.07;;;0.50;99.90;;;;;;4176780;28;21059;-77
2022/03/01 07:27:34;;;;;;;21.97;10.80;;;0.60;99.90;;;;;;4175241;28;20618;-55
2022/03/01 07:29:37;;;;;;;24.80;11.30;;;0.60;99.90;;;;;;4176408;28;20262;-64
2022/03/01 07:31:38;;;;;;;26.70;11.83;;;0.60;99.90;;;;;;4175174;28;20278;-79
2022/03/01 07:33:41;;;;;;;22.37;11.77;;;0.70;99.90;;;;;;4175744;28;20266;-56
2022/03/01 07:35:42;;;;;;;30.07;16.67;;;0.80;99.90;;;;;;4175456;28;20327;-56
2022/03/01 07:37:43;;;;;;;18.43;11.20;;;0.90;99.90;;;;;;4176203;28;20319;-62
2022/03/01 07:39:44;;;;;;;26.07;12.03;;;1.10;99.90;;;;;;4175770;28;20328;-51
2022/03/01 07:41:45;;;;;;;20.30;8.23;;;1.10;99.90;;;;;;4157162;28;20262;-55
2022/03/01 07:43:47;;;;;;;13.00;6.90;;;1.20;99.90;;;;;;4176131;28;20289;-57
2022/03/01 07:45:48;;;;;;;16.00;8.13;;;1.30;99.90;;;;;;4174741;28;20290;-65
2022/03/01 07:47:50;;;;;;;19.27;7.60;;;1.40;99.90;;;;;;4176091;28;20324;-61
2022/03/01 07:49:51;;;;;;;18.97;9.13;;;1.50;99.90;;;;;;4175053;28;20665;-70
2022/03/01 07:51:52;;;;;;;12.27;6.77;;;1.60;99.90;;;;;;4176361;28;20273;-79
2022/03/01 07:53:53;;;;;;;15.00;6.47;;;1.70;99.90;;;;;;4175992;28;20680;-77
2022/03/01 07:55:54;;;;;;;14.00;7.20;;;1.90;99.90;;;;;;4177759;28;20282;-55
2022/03/01 07:57:56;;;;;;;16.93;7.37;;;2.10;99.90;;;;;;4175170;28;20266;-56
2022/03/01 07:59:57;;;;;;;11.93;6.33;;;2.30;99.80;;;;;;4175830;28;20266;-56
2022/03/01 08:01:58;;;;;;;14.07;7.37;;;2.40;99.50;;;;;;4468017;22;20302;-74
2022/03/01 08:04:00;;;;;;;13.20;5.73;;;2.70;98.90;;;;;;4173899;28;20274;-62
2022/03/01 08:06:01;;;;;;;8.70;5.47;;;2.70;98.00;;;;;;4157497;28;20263;-74
2022/03/01 08:08:02;;;;;;;8.23;5.30;;;2.90;97.90;;;;;;4175527;28;20304;-53
2022/03/01 08:10:04;;;;;;;11.63;5.93;;;3.10;97.90;;;;;;4175375;28;20270;-60
2022/03/01 08:12:06;;;;;;;8.73;5.77;;;3.10;96.80;;;;;;4175702;28;20259;-44
2022/03/01 08:14:07;;;;;;;15.93;8.37;;;3.20;97.20;;;;;;4174862;28;20274;-43
2022/03/01 08:16:09;;;;;;;13.20;6.77;;;3.50;96.60;;;;;;4175722;28;20332;-70
2022/03/01 08:18:10;;;;;;;11.80;4.87;;;3.40;96.10;;;;;;4174492;28;20865;-49
2022/03/01 08:20:11;;;;;;;15.77;6.37;;;3.70;96.30;;;;;;4176107;28;20266;-50
2022/03/01 08:22:13;;;;;;;16.97;7.10;;;3.70;95.20;;;;;;4174253;28;20278;-57
2022/03/01 08:24:14;;;;;;;12.97;6.13;;;3.60;95.00;;;;;;4175759;28;20815;-53
2022/03/01 08:26:15;;;;;;;11.97;5.90;;;3.70;94.90;;;;;;4174312;28;20285;-58
2022/03/01 08:30:27;;;;;;;;;;;4.40;95.30;;;;;;4655986;22;20371;-49
2022/03/01 08:32:28;;;;;;;7.50;4.50;;;4.70;92.10;;;;;;4171300;28;19909;-62
2022/03/01 08:34:29;;;;;;;8.40;4.60;;;4.70;93.00;;;;;;4189757;28;20346;-58
2022/03/01 08:36:31;;;;;;;9.00;4.57;;;4.90;92.80;;;;;;4189932;28;20266;-58
2022/03/01 08:38:32;;;;;;;8.30;3.57;;;5.20;92.40;;;;;;4190408;28;20273;-48
2022/03/01 08:40:37;;;;;;;11.73;4.57;;;5.40;91.60;;;;;;4189738;28;20278;-52
2022/03/01 08:42:39;;;;;;;9.00;3.43;;;5.90;91.40;;;;;;4189352;28;20273;-47
2022/03/01 08:44:40;;;;;;;8.27;4.70;;;6.30;90.90;;;;;;4190269;28;20297;-70
2022/03/01 08:46:41;;;;;;;8.70;3.67;;;6.60;89.80;;;;;;4189091;28;20668;-60
2022/03/01 08:48:44;;;;;;;8.03;3.57;;;6.70;88.90;;;;;;4190538;28;20262;-72
2022/03/01 08:50:46;;;;;;;4.80;3.50;;;6.60;86.10;;;;;;4189348;28;20322;-77
2022/03/01 08:52:49;;;;;;;6.53;3.27;;;6.60;85.70;;;;;;4191165;28;20855;-47
2022/03/01 08:54:50;;;;;;;4.83;2.10;;;6.70;85.10;;;;;;4189570;28;20340;-58
2022/03/01 08:56:52;;;;;;;2.80;1.90;;;6.80;81.60;;;;;;4191576;28;20269;-74
2022/03/01 08:58:55;;;;;;;3.80;1.90;;;6.90;83.30;;;;;;4188979;28;20265;-84
2022/03/01 09:00:56;;;;;;;6.83;2.50;;;7.00;80.50;;;;;;4190937;28;20265;-56
2022/03/01 09:02:57;;;;;;;4.17;2.33;;;6.70;78.50;;;;;;4189204;28;20261;-86
2022/03/01 09:04:58;;;;;;;4.73;1.70;;;6.10;76.40;;;;;;4190187;28;20106;-85
2022/03/01 09:06:59;;;;;;;4.23;1.73;;;6.10;78.80;;;;;;4189306;28;20558;-54
2022/03/01 09:09:01;;;;;;;3.00;1.33;;;6.20;78.20;;;;;;4190134;28;20656;-80
2022/03/01 09:11:03;;;;;;;6.43;1.70;;;6.40;77.90;;;;;;4189281;28;20261;-64
2022/03/01 09:13:04;;;;;;;1.93;1.40;;;6.60;77.10;;;;;;4188507;28;20292;-66
2022/03/01 09:15:05;;;;;;;3.80;1.23;;;6.90;75.60;;;;;;4188488;28;20278;-65
2022/03/01 09:17:07;;;;;;;5.10;1.67;;;7.20;73.90;;;;;;4189040;28;20281;-69
2022/03/01 09:19:11;;;;;;;1.87;1.20;;;7.20;73.50;;;;;;4189490;28;20747;-70
2022/03/01 09:21:12;;;;;;;7.40;2.43;;;7.50;73.10;;;;;;4187823;28;20262;-48
2022/03/01 09:23:13;;;;;;;4.17;1.87;;;7.80;73.00;;;;;;4190449;28;20335;-80
2022/03/01 09:25:14;;;;;;;5.80;1.97;;;8.00;71.40;;;;;;4188866;28;20089;-48
2022/03/01 09:27:16;;;;;;;6.37;2.17;;;8.00;70.00;;;;;;4190176;28;20265;-80
2022/03/01 09:29:17;;;;;;;3.63;2.73;;;7.90;68.70;;;;;;4188920;28;20045;-48
2022/03/01 09:31:18;;;;;;;6.17;2.87;;;7.70;67.90;;;;;;4171210;28;20048;-49
2022/03/01 09:33:19;;;;;;;7.77;4.00;;;7.80;68.50;;;;;;4187671;28;20571;-69
2022/03/01 09:35:21;;;;;;;12.40;5.57;;;7.70;67.70;;;;;;4189859;28;20759;-45
2022/03/01 09:37:22;;;;;;;12.03;5.63;;;7.80;67.60;;;;;;4188642;28;20041;-56
2022/03/01 09:39:24;;;;;;;16.07;7.13;;;7.90;68.10;;;;;;4189548;28;20036;-58
2022/03/01 09:41:26;;;;;;;19.20;7.67;;;7.80;67.20;;;;;;4189028;28;20082;-54
2022/03/01 09:43:27;;;;;;;18.47;3.73;;;7.70;65.90;;;;;;4189266;28;20410;-54
2022/03/01 09:45:28;;;;;;;4.83;1.90;;;7.20;62.70;;;;;;4188107;28;20538;-66
2022/03/01 09:47:30;;;;;;;10.43;3.60;;;6.40;63.10;;;;;;4187698;28;20104;-57
2022/03/01 09:49:31;;;;;;;9.47;5.13;;;6.20;64.70;;;;;;4189356;28;20032;-61
2022/03/01 09:51:37;;;;;;;17.77;4.37;;;6.10;65.50;;;;;;4188622;28;20818;-52
2022/03/01 09:53:41;;;;;;;12.53;5.60;;;5.90;65.20;;;;;;4190080;28;20265;-76
2022/03/01 09:55:43;;;;;;;17.77;4.60;;;5.80;66.80;;;;;;4188374;28;20457;-68
2022/03/01 09:59:55;;;;;;;;;;;6.40;67.00;;;;;;4525986;22;20313;-61
2022/03/01 10:01:56;;;;;;;12.90;6.13;;;6.60;64.00;;;;;;4188311;28;19904;-52
2022/03/01 10:04:10;;;;;;;9.97;5.73;;;6.70;66.20;;;;;;4188974;28;20288;-51
2022/03/01 10:06:13;;;;;;;15.07;6.50;;;6.50;65.00;;;;;;4188308;28;20294;-75
2022/03/01 10:08:23;;;;;;;12.90;5.37;;;6.50;67.00;;;;;;4189524;28;20270;-51
2022/03/01 10:10:24;;;;;;;10.33;4.97;;;6.40;66.10;;;;;;4188213;28;20020;-73
2022/03/01 10:12:29;;;;;;;12.13;5.13;;;6.30;65.80;;;;;;4189102;28;20253;-55
2022/03/01 10:14:33;;;;;;;10.10;4.27;;;6.10;63.20;;;;;;4188339;28;20281;-59
2022/03/01 10:16:39;;;;;;;8.50;3.50;;;5.80;65.10;;;;;;4189229;28;20029;-43
2022/03/01 10:18:53;;;;;;;14.43;3.93;;;5.70;66.10;;;;;;4188847;28;20656;-49
2022/03/01 10:21:05;;;;;;;9.40;4.23;;;5.90;65.10;;;;;;4189177;28;20318;-81
2022/03/01 10:23:07;;;;;;;11.87;4.40;;;6.00;62.20;;;;;;4188474;28;20024;-79
2022/03/01 10:25:08;;;;;;;9.30;4.93;;;5.80;64.40;;;;;;4188718;28;20343;-40
2022/03/01 10:27:10;;;;;;;9.17;3.87;;;5.80;64.70;;;;;;4189942;28;20277;-56
2022/03/01 10:29:11;;;;;;;24.20;5.33;;;5.90;64.40;;;;;;4191535;28;20311;-55
2022/03/01 10:31:18;;;;;;;5.57;3.07;;;5.90;64.10;;;;;;4191539;28;20659;-63
2022/03/01 10:33:20;;;;;;;9.13;4.47;;;6.00;64.30;;;;;;4191290;28;20267;-62
2022/03/01 10:35:21;;;;;;;9.73;4.33;;;5.90;64.20;;;;;;4192100;28;20257;-51
2022/03/01 10:37:31;;;;;;;9.97;4.90;;;6.00;64.90;;;;;;4190724;28;20262;-74
2022/03/01 10:39:33;;;;;;;12.32;3.72;;;6.20;64.00;;;;;;4192649;28;20284;-50